Time,TemperatureF,DewpointF,PressureIn,WindDirection,WindDirectionDegrees,WindSpeedMPH,WindSpeedGustMPH,Humidity,HourlyPrecipIn,Conditions,Clouds,dailyrainin,SoftwareType,DateUTC
2013-10-25 00:02:00,36.3,35.0,31.01,SW,220,5.0,12.0,95,0.00,RA,RA,0.00,WeatherDisplay:10.37,2013-10-25 04:02:00,
2013-10-25 00:07:00,36.2,34.9,31.01,SW,224,3.0,9.0,95,0.00,RA,RA,0.00,WeatherDisplay:10.37,2013-10-25 04:07:00,
2013-10-25 00:12:00,36.2,34.9,31.01,SW,225,5.0,9.0,95,0.00,CLR,CLR,0.00,WeatherDisplay:10.37,2013-10-25 04:12:00,
2013-10-25 00:17:00,36.2,34.9,31.01,SW,218,8.0,10.0,95,0.00,CLR,CLR,0.00,WeatherDisplay:10.37,2013-10-25 04:17:00,
2013-10-25 00:22:00,36.2,34.9,31.01,SW,220,8.0,15.0,95,0.00,CLR,CLR,0.00,WeatherDisplay:10.37,2013-10-25 04:22:00,
2013-10-25 00:27:00,36.2,34.9,31.01,SW,218,6.0,12.0,95,0.00,CLR,CLR,0.00,WeatherDisplay:10.37,2013-10-25 04:27:00,
2013-10-25 00:32:00,36.3,35.0,31.01,SW,215,6.0,10.0,95,0.00,CLR,CLR,0.00,WeatherDisplay:10.37,2013-10-25 04:32:00,
2013-10-25 00:37:00,36.3,35.0,31.01,SW,220,6.0,9.0,95,0.00,CLR,CLR,0.00,WeatherDisplay:10.37,2013-10-25 04:37:00,
2013-10-25 00:42:00,36.3,35.1,31.01,SW,218,7.0,12.0,95,0.00,CLR,CLR,0.00,WeatherDisplay:10.37,2013-10-25 04:42:00,
2013-10-25 00:47:00,36.3,35.0,31.01,SW,218,7.0,12.0,95,0.01,RA,RA,0.01,WeatherDisplay:10.37,2013-10-25 04:47:00,
2013-10-25 00:52:00,36.3,35.0,31.01,SW,222,5.0,10.0,95,0.00,RA,RA,0.01,WeatherDisplay:10.37,2013-10-25 04:52:00,
2013-10-25 00:57:00,36.3,35.0,31.02,SW,227,5.0,9.0,95,0.00,CLR,CLR,0.01,WeatherDisplay:10.37,2013-10-25 04:57:00,
2013-10-25 01:02:00,36.3,35.0,31.02,SW,224,5.0,8.0,95,0.00,CLR,CLR,0.01,WeatherDisplay:10.37,2013-10-25 05:02:00,
2013-10-25 01:07:00,36.3,35.0,31.02,SW,225,6.0,8.0,95,0.00,CLR,CLR,0.01,WeatherDisplay:10.37,2013-10-25 05:07:00,
2013-10-25 01:12:00,36.3,35.0,31.02,SW,223,6.0,8.0,95,0.00,CLR,CLR,0.01,WeatherDisplay:10.37,2013-10-25 05:12:00,
2013-10-25 01:17:00,36.4,35.1,31.02,SW,225,3.0,7.0,95,0.00,CLR,CLR,0.01,WeatherDisplay:10.37,2013-10-25 05:17:00,
2013-10-25 01:22:00,36.4,35.1,31.03,SW,228,5.0,7.0,95,0.00,CLR,CLR,0.01,WeatherDisplay:10.37,2013-10-25 05:22:00,
2013-10-25 01:27:00,36.4,35.1,31.03,SSW,213,2.0,5.0,95,0.00,CLR,CLR,0.01,WeatherDisplay:10.37,2013-10-25 05:27:00,
2013-10-25 01:32:00,36.4,35.1,31.03,SW,218,3.0,6.0,95,0.00,CLR,CLR,0.01,WeatherDisplay:10.37,2013-10-25 05:32:00,
2013-10-25 01:37:00,36.4,35.1,31.03,SW,221,5.0,7.0,95,0.00,CLR,CLR,0.01,WeatherDisplay:10.37,2013-10-25 05:37:00,
2013-10-25 01:42:00,36.4,35.1,31.03,SSW,213,2.0,6.0,95,0.00,CLR,CLR,0.01,WeatherDisplay:10.37,2013-10-25 05:42:00,
2013-10-25 01:47:00,36.4,35.1,31.03,SSW,203,3.0,7.0,95,0.00,CLR,CLR,0.01,WeatherDisplay:10.37,2013-10-25 05:47:00,
2013-10-25 01:52:00,36.4,35.1,31.03,SSW,195,0.0,4.0,95,0.00,CLR,CLR,0.01,WeatherDisplay:10.37,2013-10-25 05:52:00,
2013-10-25 01:57:00,36.4,35.1,31.03,SSW,206,2.0,6.0,95,0.00,CLR,CLR,0.01,WeatherDisplay:10.37,2013-10-25 05:57:00,
2013-10-25 02:02:00,36.3,35.0,31.03,SW,214,1.0,6.0,95,0.00,CLR,CLR,0.01,WeatherDisplay:10.37,2013-10-25 06:02:00,
2013-10-25 02:07:00,36.1,34.8,31.03,SSW,208,3.0,6.0,95,0.00,CLR,CLR,0.01,WeatherDisplay:10.37,2013-10-25 06:07:00,
2013-10-25 02:12:00,36.0,34.7,31.04,SSW,201,2.0,4.0,95,0.00,CLR,CLR,0.01,WeatherDisplay:10.37,2013-10-25 06:12:00,
2013-10-25 02:17:00,35.8,34.5,31.04,SSW,196,2.0,4.0,95,0.00,CLR,CLR,0.01,WeatherDisplay:10.37,2013-10-25 06:17:00,
2013-10-25 02:22:00,35.7,34.4,31.04,SSW,197,0.0,0.0,95,0.00,CLR,CLR,0.01,WeatherDisplay:10.37,2013-10-25 06:22:00,
2013-10-25 02:27:00,35.5,34.2,31.04,SSW,197,1.0,3.0,95,0.00,CLR,CLR,0.01,WeatherDisplay:10.37,2013-10-25 06:27:00,
2013-10-25 02:32:00,35.4,34.1,31.04,SSW,197,2.0,4.0,95,0.00,CLR,CLR,0.01,WeatherDisplay:10.37,2013-10-25 06:32:00,
2013-10-25 02:37:00,35.4,34.1,31.04,SSW,197,3.0,5.0,95,0.00,CLR,CLR,0.01,WeatherDisplay:10.37,2013-10-25 06:37:00,
2013-10-25 02:42:00,35.5,34.2,31.04,SSW,197,3.0,5.0,95,0.00,CLR,CLR,0.01,WeatherDisplay:10.37,2013-10-25 06:42:00,
2013-10-25 02:47:00,35.6,34.6,31.05,SSW,197,3.0,5.0,96,0.00,CLR,CLR,0.01,WeatherDisplay:10.37,2013-10-25 06:47:00,
2013-10-25 02:52:00,35.7,34.4,31.05,SSW,198,2.0,5.0,95,0.00,CLR,CLR,0.01,WeatherDisplay:10.37,2013-10-25 06:52:00,
2013-10-25 02:57:00,35.7,34.4,31.05,SSW,198,2.0,5.0,95,0.00,CLR,CLR,0.01,WeatherDisplay:10.37,2013-10-25 06:57:00,
2013-10-25 03:02:00,35.6,34.3,31.05,SSW,198,2.0,3.0,95,0.00,CLR,CLR,0.01,WeatherDisplay:10.37,2013-10-25 07:02:00,
2013-10-25 03:07:00,35.5,34.5,31.05,SSW,198,2.0,4.0,96,0.00,CLR,CLR,0.01,WeatherDisplay:10.37,2013-10-25 07:07:00,
2013-10-25 03:12:00,35.5,34.5,31.05,SSW,198,2.0,5.0,96,0.00,CLR,CLR,0.01,WeatherDisplay:10.37,2013-10-25 07:12:00,
2013-10-25 03:17:00,35.3,34.0,31.05,SSW,198,2.0,3.0,95,0.00,CLR,CLR,0.01,WeatherDisplay:10.37,2013-10-25 07:17:00,
2013-10-25 03:22:00,35.2,33.9,31.05,SSW,198,1.0,4.0,95,0.00,CLR,CLR,0.01,WeatherDisplay:10.37,2013-10-25 07:22:00,
2013-10-25 03:32:00,35.0,34.0,31.05,SSW,198,1.0,3.0,96,0.00,CLR,CLR,0.01,WeatherDisplay:10.37,2013-10-25 07:32:00,
2013-10-25 03:37:00,34.8,33.5,31.06,SSW,200,3.0,5.0,95,0.00,CLR,CLR,0.01,WeatherDisplay:10.37,2013-10-25 07:37:00,
2013-10-25 03:42:00,34.7,33.7,31.06,SSW,204,0.0,5.0,96,0.00,CLR,CLR,0.01,WeatherDisplay:10.37,2013-10-25 07:42:00,
2013-10-25 03:47:00,34.6,33.3,31.06,SSW,205,2.0,4.0,95,0.00,CLR,CLR,0.01,WeatherDisplay:10.37,2013-10-25 07:47:00,
2013-10-25 03:52:00,34.6,33.6,31.06,SSW,205,3.0,5.0,96,0.00,CLR,CLR,0.01,WeatherDisplay:10.37,2013-10-25 07:52:00,
2013-10-25 03:57:00,34.6,33.6,31.06,SSW,205,2.0,4.0,96,0.00,CLR,CLR,0.01,WeatherDisplay:10.37,2013-10-25 07:57:00,
2013-10-25 04:02:00,34.5,33.5,31.06,SSW,205,2.0,4.0,96,0.00,CLR,CLR,0.01,WeatherDisplay:10.37,2013-10-25 08:02:00,
2013-10-25 04:07:00,34.4,33.4,31.06,SSW,205,1.0,4.0,96,0.00,CLR,CLR,0.01,WeatherDisplay:10.37,2013-10-25 08:07:00,
2013-10-25 04:12:00,34.2,33.2,31.06,SSW,205,1.0,3.0,96,0.00,CLR,CLR,0.01,WeatherDisplay:10.37,2013-10-25 08:12:00,
2013-10-25 04:17:00,34.0,33.0,31.06,SSW,205,1.0,4.0,96,0.00,CLR,CLR,0.01,WeatherDisplay:10.37,2013-10-25 08:17:00,
2013-10-25 04:22:00,33.9,32.9,31.06,SSW,205,0.0,3.0,96,0.00,CLR,CLR,0.01,WeatherDisplay:10.37,2013-10-25 08:22:00,
2013-10-25 04:27:00,33.8,32.8,31.06,SSW,205,0.0,4.0,96,0.00,CLR,CLR,0.01,WeatherDisplay:10.37,2013-10-25 08:27:00,
2013-10-25 04:32:00,33.6,32.6,31.06,SSW,205,0.0,2.0,96,0.00,CLR,CLR,0.01,WeatherDisplay:10.37,2013-10-25 08:32:00,
2013-10-25 04:37:00,33.3,32.0,31.06,SSW,205,0.0,0.0,95,0.00,CLR,CLR,0.01,WeatherDisplay:10.37,2013-10-25 08:37:00,
2013-10-25 04:42:00,33.0,31.7,31.06,SSW,205,1.0,3.0,95,0.00,CLR,CLR,0.01,WeatherDisplay:10.37,2013-10-25 08:42:00,
2013-10-25 04:47:00,32.9,31.8,31.06,SSW,205,0.0,0.0,96,0.00,CLR,CLR,0.01,WeatherDisplay:10.37,2013-10-25 08:47:00,
2013-10-25 04:52:00,32.7,31.7,31.07,SSW,205,0.0,0.0,96,0.00,CLR,CLR,0.01,WeatherDisplay:10.37,2013-10-25 08:52:00,
2013-10-25 04:57:00,32.5,31.2,31.07,SSW,205,0.0,0.0,95,0.00,CLR,CLR,0.01,WeatherDisplay:10.37,2013-10-25 08:57:00,
2013-10-25 05:02:00,32.3,31.0,31.07,SSW,205,0.0,0.0,95,0.00,CLR,CLR,0.01,WeatherDisplay:10.37,2013-10-25 09:02:00,
2013-10-25 05:07:00,32.2,31.2,31.07,SSW,205,0.0,0.0,96,0.00,CLR,CLR,0.01,WeatherDisplay:10.37,2013-10-25 09:07:00,
2013-10-25 05:12:00,32.1,31.1,31.07,SSW,205,0.0,0.0,96,0.00,CLR,CLR,0.01,WeatherDisplay:10.37,2013-10-25 09:12:00,
2013-10-25 05:17:00,31.9,30.9,31.07,SSW,205,0.0,0.0,96,0.00,CLR,CLR,0.01,WeatherDisplay:10.37,2013-10-25 09:17:00,
2013-10-25 05:22:00,31.8,30.8,31.08,SSW,205,0.0,0.0,96,0.00,CLR,CLR,0.01,WeatherDisplay:10.37,2013-10-25 09:22:00,
2013-10-25 05:27:00,31.7,30.7,31.08,SSW,205,0.0,0.0,96,0.00,CLR,CLR,0.01,WeatherDisplay:10.37,2013-10-25 09:27:00,
2013-10-25 05:32:00,31.5,30.5,31.08,SSW,205,0.0,0.0,96,0.00,CLR,CLR,0.01,WeatherDisplay:10.37,2013-10-25 09:32:00,
2013-10-25 05:37:00,31.5,30.5,31.08,SSW,205,0.0,0.0,96,0.00,CLR,CLR,0.01,WeatherDisplay:10.37,2013-10-25 09:37:00,
2013-10-25 05:42:00,31.5,30.5,31.09,SSW,205,0.0,0.0,96,0.00,CLR,CLR,0.01,WeatherDisplay:10.37,2013-10-25 09:42:00,
2013-10-25 05:47:00,31.4,30.4,31.09,SSW,205,0.0,0.0,96,0.00,CLR,CLR,0.01,WeatherDisplay:10.37,2013-10-25 09:47:00,
2013-10-25 05:52:00,31.4,30.4,31.09,SSW,205,0.0,0.0,96,0.00,CLR,CLR,0.01,WeatherDisplay:10.37,2013-10-25 09:52:00,
2013-10-25 05:57:00,31.4,30.4,31.09,SSW,205,0.0,0.0,96,0.00,CLR,CLR,0.01,WeatherDisplay:10.37,2013-10-25 09:57:00,
2013-10-25 06:02:00,31.4,30.4,31.09,SSW,205,0.0,0.0,96,0.00,CLR,CLR,0.01,WeatherDisplay:10.37,2013-10-25 10:02:00,
2013-10-25 06:07:00,31.3,30.3,31.09,SSW,205,0.0,0.0,96,0.00,CLR,CLR,0.01,WeatherDisplay:10.37,2013-10-25 10:07:00,
2013-10-25 06:12:00,31.2,30.2,31.10,SSW,205,0.0,0.0,96,0.00,CLR,CLR,0.01,WeatherDisplay:10.37,2013-10-25 10:12:00,
2013-10-25 06:17:00,31.1,30.1,31.10,SSW,205,0.0,0.0,96,0.00,CLR,CLR,0.01,WeatherDisplay:10.37,2013-10-25 10:17:00,
2013-10-25 06:22:00,31.1,30.1,31.10,SSW,205,0.0,0.0,96,0.00,CLR,CLR,0.01,WeatherDisplay:10.37,2013-10-25 10:22:00,
2013-10-25 06:32:00,31.0,30.0,31.10,SSW,205,0.0,0.0,96,0.00,CLR,CLR,0.01,WeatherDisplay:10.37,2013-10-25 10:32:00,
2013-10-25 06:37:00,31.0,30.0,31.10,SSW,205,0.0,0.0,96,0.00,CLR,CLR,0.01,WeatherDisplay:10.37,2013-10-25 10:37:00,
2013-10-25 06:42:00,31.0,30.0,31.11,SSW,205,0.0,0.0,96,0.00,CLR,CLR,0.01,WeatherDisplay:10.37,2013-10-25 10:42:00,
2013-10-25 06:47:00,30.9,29.9,31.11,SSW,205,0.0,0.0,96,0.00,CLR,CLR,0.01,WeatherDisplay:10.37,2013-10-25 10:47:00,
2013-10-25 06:52:00,30.7,29.7,31.11,SSW,205,0.0,0.0,96,0.00,CLR,CLR,0.01,WeatherDisplay:10.37,2013-10-25 10:52:00,
2013-10-25 06:57:00,30.6,29.6,31.11,SSW,205,0.0,0.0,96,0.00,CLR,CLR,0.01,WeatherDisplay:10.37,2013-10-25 10:57:00,
2013-10-25 07:02:00,30.6,29.6,31.12,SSW,205,0.0,0.0,96,0.00,CLR,CLR,0.01,WeatherDisplay:10.37,2013-10-25 11:02:00,
2013-10-25 07:07:00,30.6,29.6,31.12,SSW,205,0.0,0.0,96,0.00,CLR,CLR,0.01,WeatherDisplay:10.37,2013-10-25 11:07:00,
2013-10-25 07:12:00,30.5,29.5,31.12,SSW,205,0.0,0.0,96,0.00,CLR,CLR,0.01,WeatherDisplay:10.37,2013-10-25 11:12:00,
2013-10-25 07:17:00,30.5,29.5,31.12,SSW,205,0.0,0.0,96,0.00,CLR,CLR,0.01,WeatherDisplay:10.37,2013-10-25 11:17:00,
2013-10-25 07:22:00,30.6,29.6,31.12,SSW,205,0.0,0.0,96,0.00,CLR,CLR,0.01,WeatherDisplay:10.37,2013-10-25 11:22:00,
2013-10-25 07:27:00,30.9,30.1,31.12,SSW,205,0.0,0.0,97,0.00,CLR,CLR,0.01,WeatherDisplay:10.37,2013-10-25 11:27:00,
2013-10-25 07:32:00,31.1,30.3,31.12,SSW,205,0.0,0.0,97,0.00,CLR,CLR,0.01,WeatherDisplay:10.37,2013-10-25 11:32:00,
2013-10-25 07:42:00,31.4,30.6,31.12,SSW,205,0.0,0.0,97,0.00,CLR,CLR,0.01,WeatherDisplay:10.37,2013-10-25 11:42:00,
2013-10-25 07:47:00,31.4,30.6,31.13,SSW,205,0.0,0.0,97,0.00,CLR,CLR,0.01,WeatherDisplay:10.37,2013-10-25 11:47:00,
2013-10-25 07:52:00,31.4,30.6,31.13,SSW,205,0.0,0.0,97,0.00,CLR,CLR,0.01,WeatherDisplay:10.37,2013-10-25 11:52:00,
2013-10-25 07:57:00,31.3,30.3,31.13,SSW,205,0.0,0.0,96,0.00,CLR,CLR,0.01,WeatherDisplay:10.37,2013-10-25 11:57:00,
2013-10-25 08:02:00,31.1,30.1,31.13,SSW,205,0.0,0.0,96,0.00,CLR,CLR,0.01,WeatherDisplay:10.37,2013-10-25 12:02:00,
2013-10-25 08:07:00,31.0,30.0,31.14,SSW,205,0.0,0.0,96,0.00,CLR,CLR,0.01,WeatherDisplay:10.37,2013-10-25 12:07:00,
2013-10-25 08:12:00,31.1,30.1,31.14,SSW,205,0.0,0.0,96,0.00,CLR,CLR,0.01,WeatherDisplay:10.37,2013-10-25 12:12:00,
2013-10-25 08:17:00,31.0,30.0,31.14,SSW,205,0.0,0.0,96,0.00,CLR,CLR,0.01,WeatherDisplay:10.37,2013-10-25 12:17:00,
2013-10-25 08:22:00,30.9,29.9,31.14,SSW,205,0.0,0.0,96,0.00,CLR,CLR,0.01,WeatherDisplay:10.37,2013-10-25 12:22:00,
2013-10-25 08:27:00,30.8,29.8,31.15,SSW,205,0.0,0.0,96,0.00,CLR,CLR,0.01,WeatherDisplay:10.37,2013-10-25 12:27:00,
2013-10-25 08:32:00,30.9,29.9,31.15,SSW,205,0.0,0.0,96,0.00,CLR,CLR,0.01,WeatherDisplay:10.37,2013-10-25 12:32:00,
2013-10-25 08:37:00,31.3,30.6,31.15,SSW,205,0.0,0.0,97,0.00,CLR,CLR,0.01,WeatherDisplay:10.37,2013-10-25 12:37:00,
2013-10-25 08:42:00,32.0,31.2,31.15,SSW,205,0.0,0.0,97,0.00,CLR,CLR,0.01,WeatherDisplay:10.37,2013-10-25 12:42:00,
2013-10-25 08:47:00,32.9,32.2,31.15,SSW,205,0.0,0.0,97,0.00,CLR,CLR,0.01,WeatherDisplay:10.37,2013-10-25 12:47:00,
2013-10-25 08:52:00,33.7,32.9,31.15,SSW,205,1.0,4.0,97,0.00,CLR,CLR,0.01,WeatherDisplay:10.37,2013-10-25 12:52:00,
2013-10-25 08:57:00,34.2,33.4,31.16,SSW,205,0.0,3.0,97,0.00,CLR,CLR,0.01,WeatherDisplay:10.37,2013-10-25 12:57:00,
2013-10-25 09:02:00,34.5,33.8,31.16,SSW,205,1.0,3.0,97,0.00,CLR,CLR,0.01,WeatherDisplay:10.37,2013-10-25 13:02:00,
2013-10-25 09:07:00,34.9,34.1,31.16,SSW,205,0.0,3.0,97,0.00,CLR,CLR,0.01,WeatherDisplay:10.37,2013-10-25 13:07:00,
2013-10-25 09:12:00,35.2,34.4,31.16,SSW,205,1.0,3.0,97,0.00,CLR,CLR,0.01,WeatherDisplay:10.37,2013-10-25 13:12:00,
2013-10-25 09:17:00,35.5,34.7,31.16,South,191,0.0,5.0,97,0.00,CLR,CLR,0.01,WeatherDisplay:10.37,2013-10-25 13:17:00,
2013-10-25 09:22:00,35.9,35.2,31.16,South,174,1.0,4.0,97,0.00,CLR,CLR,0.01,WeatherDisplay:10.37,2013-10-25 13:22:00,
2013-10-25 09:27:00,36.8,36.0,31.17,South,174,1.0,5.0,97,0.00,CLR,CLR,0.01,WeatherDisplay:10.37,2013-10-25 13:27:00,
2013-10-25 09:32:00,37.8,37.3,31.17,South,176,2.0,6.0,98,0.00,CLR,CLR,0.01,WeatherDisplay:10.37,2013-10-25 13:32:00,
2013-10-25 09:37:00,38.7,38.2,31.17,South,190,3.0,6.0,98,0.00,CLR,CLR,0.01,WeatherDisplay:10.37,2013-10-25 13:37:00,
2013-10-25 09:42:00,39.5,38.9,31.17,SSW,213,3.0,7.0,98,0.00,CLR,CLR,0.01,WeatherDisplay:10.37,2013-10-25 13:42:00,
2013-10-25 09:47:00,40.1,39.3,31.17,SW,219,5.0,7.0,97,0.00,CLR,CLR,0.01,WeatherDisplay:10.37,2013-10-25 13:47:00,
2013-10-25 09:52:00,40.7,39.6,31.17,SW,222,6.0,9.0,96,0.00,CLR,CLR,0.01,WeatherDisplay:10.37,2013-10-25 13:52:00,
2013-10-25 09:57:00,41.3,39.7,31.17,SW,226,6.0,7.0,94,0.00,CLR,CLR,0.01,WeatherDisplay:10.37,2013-10-25 13:57:00,
2013-10-25 10:02:00,41.5,39.3,31.17,SW,226,5.0,7.0,92,0.00,CLR,CLR,0.01,WeatherDisplay:10.37,2013-10-25 14:02:00,
2013-10-25 10:07:00,41.5,38.8,31.18,WSW,240,5.0,7.0,90,0.00,CLR,CLR,0.01,WeatherDisplay:10.37,2013-10-25 14:07:00,
2013-10-25 10:12:00,41.5,38.8,31.18,WSW,250,3.0,10.0,90,0.00,CLR,CLR,0.01,WeatherDisplay:10.37,2013-10-25 14:12:00,
2013-10-25 10:17:00,41.7,39.0,31.18,SW,236,5.0,7.0,90,0.00,CLR,CLR,0.01,WeatherDisplay:10.37,2013-10-25 14:17:00,
2013-10-25 10:22:00,42.0,39.0,31.18,SW,222,6.0,9.0,89,0.00,CLR,CLR,0.01,WeatherDisplay:10.37,2013-10-25 14:22:00,
2013-10-25 10:27:00,42.3,39.3,31.18,SW,224,3.0,9.0,89,0.00,CLR,CLR,0.01,WeatherDisplay:10.37,2013-10-25 14:27:00,
2013-10-25 10:32:00,42.2,38.6,31.18,WSW,238,6.0,10.0,87,0.00,CLR,CLR,0.01,WeatherDisplay:10.37,2013-10-25 14:32:00,
2013-10-25 10:37:00,42.3,38.7,31.18,WSW,249,3.0,10.0,87,0.00,CLR,CLR,0.01,WeatherDisplay:10.37,2013-10-25 14:37:00,
2013-10-25 10:42:00,42.8,39.5,31.18,West,259,5.0,10.0,88,0.00,CLR,CLR,0.01,WeatherDisplay:10.37,2013-10-25 14:42:00,
2013-10-25 10:47:00,43.2,39.6,31.18,WSW,257,5.0,8.0,87,0.00,CLR,CLR,0.01,WeatherDisplay:10.37,2013-10-25 14:47:00,
2013-10-25 10:52:00,43.5,39.9,31.18,WSW,247,7.0,12.0,87,0.00,CLR,CLR,0.01,WeatherDisplay:10.37,2013-10-25 14:52:00,
2013-10-25 10:57:00,43.8,39.9,31.18,WSW,249,7.0,13.0,86,0.00,CLR,CLR,0.01,WeatherDisplay:10.37,2013-10-25 14:57:00,
2013-10-25 11:02:00,44.3,40.0,31.19,WSW,246,8.0,13.0,85,0.00,CLR,CLR,0.01,WeatherDisplay:10.37,2013-10-25 15:02:00,
2013-10-25 11:07:00,44.4,39.8,31.18,WSW,248,5.0,12.0,84,0.00,CLR,CLR,0.01,WeatherDisplay:10.37,2013-10-25 15:07:00,
2013-10-25 11:12:00,44.7,39.9,31.18,WSW,250,8.0,14.0,83,0.00,CLR,CLR,0.01,WeatherDisplay:10.37,2013-10-25 15:12:00,
2013-10-25 11:17:00,44.8,39.7,31.19,WSW,243,7.0,13.0,82,0.00,CLR,CLR,0.01,WeatherDisplay:10.37,2013-10-25 15:17:00,
2013-10-25 11:22:00,44.9,39.4,31.18,WSW,244,9.0,14.0,81,0.00,CLR,CLR,0.01,WeatherDisplay:10.37,2013-10-25 15:22:00,
2013-10-25 11:27:00,44.6,39.1,31.19,WSW,246,3.0,12.0,81,0.00,CLR,CLR,0.01,WeatherDisplay:10.37,2013-10-25 15:27:00,
2013-10-25 11:32:00,45.0,39.8,31.19,WSW,238,8.0,12.0,82,0.00,CLR,CLR,0.01,WeatherDisplay:10.37,2013-10-25 15:32:00,
2013-10-25 11:37:00,44.9,39.4,31.19,WSW,238,6.0,13.0,81,0.00,CLR,CLR,0.01,WeatherDisplay:10.37,2013-10-25 15:37:00,
2013-10-25 11:42:00,44.5,39.0,31.19,WSW,244,8.0,15.0,81,0.00,CLR,CLR,0.01,WeatherDisplay:10.37,2013-10-25 15:42:00,
2013-10-25 11:47:00,43.6,38.8,31.20,WSW,243,9.0,17.0,83,0.01,RA,RA,0.02,WeatherDisplay:10.37,2013-10-25 15:47:00,
2013-10-25 11:52:00,41.9,38.0,31.19,SW,236,6.0,17.0,86,0.00,RA,RA,0.02,WeatherDisplay:10.37,2013-10-25 15:52:00,
2013-10-25 11:57:00,41.1,37.8,31.19,SW,227,7.0,12.0,88,0.00,,,0.02,WeatherDisplay:10.37,2013-10-25 15:57:00,
2013-10-25 12:02:00,40.9,38.2,31.19,SW,223,5.0,10.0,90,0.00,CLR,CLR,0.02,WeatherDisplay:10.37,2013-10-25 16:02:00,
2013-10-25 12:07:00,41.0,38.3,31.19,SW,229,6.0,10.0,90,0.00,CLR,CLR,0.02,WeatherDisplay:10.37,2013-10-25 16:07:00,
2013-10-25 12:12:00,41.3,38.9,31.18,SW,229,7.0,10.0,91,0.00,CLR,CLR,0.02,WeatherDisplay:10.37,2013-10-25 16:12:00,
2013-10-25 12:17:00,41.7,39.3,31.18,SW,226,6.0,17.0,91,0.00,CLR,CLR,0.02,WeatherDisplay:10.37,2013-10-25 16:17:00,
2013-10-25 12:22:00,42.4,40.3,31.18,SW,234,5.0,12.0,92,0.00,CLR,CLR,0.02,WeatherDisplay:10.37,2013-10-25 16:22:00,
2013-10-25 12:27:00,43.1,40.0,31.18,WSW,238,5.0,12.0,89,0.00,CLR,CLR,0.02,WeatherDisplay:10.37,2013-10-25 16:27:00,
2013-10-25 12:32:00,43.1,39.5,31.18,SW,234,6.0,9.0,87,0.00,CLR,CLR,0.02,WeatherDisplay:10.37,2013-10-25 16:32:00,
2013-10-25 12:37:00,43.2,39.6,31.18,SW,231,8.0,13.0,87,0.00,CLR,CLR,0.02,WeatherDisplay:10.37,2013-10-25 16:37:00,
2013-10-25 12:42:00,43.1,39.2,31.18,WSW,240,8.0,12.0,86,0.00,CLR,CLR,0.02,WeatherDisplay:10.37,2013-10-25 16:42:00,
2013-10-25 12:47:00,43.6,39.3,31.18,WSW,254,7.0,13.0,85,0.00,CLR,CLR,0.02,WeatherDisplay:10.37,2013-10-25 16:47:00,
2013-10-25 12:52:00,44.3,39.8,31.18,WSW,255,7.0,10.0,84,0.00,CLR,CLR,0.02,WeatherDisplay:10.37,2013-10-25 16:52:00,
2013-10-25 12:57:00,44.5,39.7,31.18,WSW,242,7.0,14.0,83,0.00,CLR,CLR,0.02,WeatherDisplay:10.37,2013-10-25 16:57:00,
2013-10-25 13:02:00,44.4,38.6,31.18,WSW,247,8.0,14.0,80,0.00,CLR,CLR,0.02,WeatherDisplay:10.37,2013-10-25 17:02:00,
2013-10-25 13:07:00,44.1,38.3,31.18,WSW,246,9.0,13.0,80,0.00,CLR,CLR,0.02,WeatherDisplay:10.37,2013-10-25 17:07:00,
2013-10-25 13:12:00,43.9,38.1,31.18,WSW,242,8.0,16.0,80,0.00,CLR,CLR,0.02,WeatherDisplay:10.37,2013-10-25 17:12:00,
2013-10-25 13:17:00,43.6,37.8,31.18,WSW,242,7.0,13.0,80,0.00,CLR,CLR,0.02,WeatherDisplay:10.37,2013-10-25 17:17:00,
2013-10-25 13:22:00,43.6,38.2,31.18,WSW,245,7.0,14.0,81,0.00,CLR,CLR,0.02,WeatherDisplay:10.37,2013-10-25 17:22:00,
2013-10-25 13:27:00,43.3,37.5,31.18,WSW,242,7.0,17.0,80,0.00,CLR,CLR,0.02,WeatherDisplay:10.37,2013-10-25 17:27:00,
2013-10-25 13:32:00,43.1,37.3,31.18,WSW,249,9.0,16.0,80,0.00,CLR,CLR,0.02,WeatherDisplay:10.37,2013-10-25 17:32:00,
2013-10-25 13:37:00,42.6,37.1,31.18,WSW,256,9.0,16.0,81,0.00,CLR,CLR,0.02,WeatherDisplay:10.37,2013-10-25 17:37:00,
2013-10-25 13:42:00,41.5,37.3,31.18,WSW,256,6.0,15.0,85,0.00,CLR,CLR,0.02,WeatherDisplay:10.37,2013-10-25 17:42:00,
2013-10-25 13:47:00,40.9,37.3,31.18,West,270,6.0,12.0,87,0.01,RA,RA,0.03,WeatherDisplay:10.37,2013-10-25 17:47:00,
2013-10-25 13:52:00,40.4,37.4,31.18,WNW,282,3.0,9.0,89,0.00,RA,RA,0.03,WeatherDisplay:10.37,2013-10-25 17:52:00,
2013-10-25 13:57:00,40.2,37.5,31.18,NW,311,2.0,7.0,90,0.01,RA,RA,0.04,WeatherDisplay:10.37,2013-10-25 17:57:00,
2013-10-25 14:02:00,40.1,37.7,31.17,NW,314,3.0,5.0,91,0.00,RA,RA,0.04,WeatherDisplay:10.37,2013-10-25 18:02:00,
2013-10-25 14:07:00,40.5,38.4,31.17,West,275,0.0,5.0,92,0.00,CLR,CLR,0.04,WeatherDisplay:10.37,2013-10-25 18:07:00,
2013-10-25 14:12:00,41.1,39.2,31.17,West,273,3.0,5.0,93,0.00,CLR,CLR,0.04,WeatherDisplay:10.37,2013-10-25 18:12:00,
2013-10-25 14:17:00,41.8,40.0,31.17,WSW,254,3.0,6.0,93,0.00,CLR,CLR,0.04,WeatherDisplay:10.37,2013-10-25 18:17:00,
2013-10-25 14:22:00,42.6,40.5,31.17,SW,229,5.0,8.0,92,0.00,CLR,CLR,0.04,WeatherDisplay:10.37,2013-10-25 18:22:00,
2013-10-25 14:27:00,43.5,41.0,31.17,SW,225,5.0,9.0,91,0.00,CLR,CLR,0.04,WeatherDisplay:10.37,2013-10-25 18:27:00,
2013-10-25 14:32:00,43.9,41.2,31.17,WSW,237,3.0,8.0,90,0.00,CLR,CLR,0.04,WeatherDisplay:10.37,2013-10-25 18:32:00,
2013-10-25 14:37:00,44.1,40.8,31.17,WSW,248,5.0,10.0,88,0.00,CLR,CLR,0.04,WeatherDisplay:10.37,2013-10-25 18:37:00,
2013-10-25 14:42:00,43.9,39.7,31.17,WSW,241,8.0,15.0,85,0.00,CLR,CLR,0.04,WeatherDisplay:10.37,2013-10-25 18:42:00,
2013-10-25 14:47:00,43.8,39.3,31.17,WSW,238,9.0,13.0,84,0.00,CLR,CLR,0.04,WeatherDisplay:10.37,2013-10-25 18:47:00,
2013-10-25 14:52:00,43.6,39.1,31.16,WSW,246,7.0,13.0,84,0.00,CLR,CLR,0.04,WeatherDisplay:10.37,2013-10-25 18:52:00,
2013-10-25 14:57:00,43.6,39.1,31.16,WSW,256,6.0,12.0,84,0.00,CLR,CLR,0.04,WeatherDisplay:10.37,2013-10-25 18:57:00,
2013-10-25 15:02:00,43.7,39.5,31.16,WSW,258,5.0,9.0,85,0.00,CLR,CLR,0.04,WeatherDisplay:10.37,2013-10-25 19:02:00,
2013-10-25 15:07:00,43.8,39.3,31.16,WSW,255,6.0,12.0,84,0.00,CLR,CLR,0.04,WeatherDisplay:10.37,2013-10-25 19:07:00,
2013-10-25 15:12:00,43.9,39.3,31.16,WSW,256,3.0,7.0,84,0.00,CLR,CLR,0.04,WeatherDisplay:10.37,2013-10-25 19:12:00,
2013-10-25 15:17:00,44.0,39.2,31.16,WSW,247,3.0,13.0,83,0.00,CLR,CLR,0.04,WeatherDisplay:10.37,2013-10-25 19:17:00,
2013-10-25 15:22:00,44.1,39.0,31.16,WSW,240,6.0,13.0,82,0.00,CLR,CLR,0.04,WeatherDisplay:10.37,2013-10-25 19:22:00,
2013-10-25 15:27:00,44.1,38.6,31.16,WSW,246,6.0,12.0,81,0.00,CLR,CLR,0.04,WeatherDisplay:10.37,2013-10-25 19:27:00,
2013-10-25 15:32:00,44.1,38.6,31.16,WSW,257,7.0,12.0,81,0.00,CLR,CLR,0.04,WeatherDisplay:10.37,2013-10-25 19:32:00,
2013-10-25 15:37:00,44.1,38.3,31.16,WSW,251,6.0,9.0,80,0.00,CLR,CLR,0.04,WeatherDisplay:10.37,2013-10-25 19:37:00,
2013-10-25 15:42:00,44.0,38.5,31.16,WSW,245,6.0,9.0,81,0.00,CLR,CLR,0.04,WeatherDisplay:10.37,2013-10-25 19:42:00,
2013-10-25 15:47:00,43.9,38.1,31.16,WSW,256,9.0,13.0,80,0.00,CLR,CLR,0.04,WeatherDisplay:10.37,2013-10-25 19:47:00,
2013-10-25 15:52:00,43.6,37.5,31.16,WSW,251,7.0,13.0,79,0.00,CLR,CLR,0.04,WeatherDisplay:10.37,2013-10-25 19:52:00,
2013-10-25 15:57:00,43.3,37.9,31.16,WSW,246,3.0,8.0,81,0.00,CLR,CLR,0.04,WeatherDisplay:10.37,2013-10-25 19:57:00,
2013-10-25 16:02:00,43.3,38.2,31.16,WSW,249,0.0,7.0,82,0.00,CLR,CLR,0.04,WeatherDisplay:10.37,2013-10-25 20:02:00,
2013-10-25 16:07:00,43.3,38.5,31.16,WSW,249,2.0,6.0,83,0.00,CLR,CLR,0.04,WeatherDisplay:10.37,2013-10-25 20:07:00,
2013-10-25 16:12:00,43.3,38.5,31.16,WSW,248,5.0,9.0,83,0.00,CLR,CLR,0.04,WeatherDisplay:10.37,2013-10-25 20:12:00,
2013-10-25 16:17:00,43.3,38.5,31.16,WSW,255,6.0,9.0,83,0.00,CLR,CLR,0.04,WeatherDisplay:10.37,2013-10-25 20:17:00,
2013-10-25 16:22:00,43.7,38.9,31.16,West,266,2.0,6.0,83,0.00,CLR,CLR,0.04,WeatherDisplay:10.37,2013-10-25 20:22:00,
2013-10-25 16:27:00,44.8,40.0,31.16,West,274,3.0,6.0,83,0.00,CLR,CLR,0.04,WeatherDisplay:10.37,2013-10-25 20:27:00,
2013-10-25 16:32:00,46.1,39.9,31.15,West,260,2.0,6.0,79,0.00,CLR,CLR,0.04,WeatherDisplay:10.37,2013-10-25 20:32:00,
2013-10-25 16:37:00,47.0,39.4,31.16,West,260,7.0,14.0,75,0.00,CLR,CLR,0.04,WeatherDisplay:10.37,2013-10-25 20:37:00,
2013-10-25 16:42:00,47.1,37.1,31.16,WSW,253,7.0,16.0,68,0.00,CLR,CLR,0.04,WeatherDisplay:10.37,2013-10-25 20:42:00,
2013-10-25 16:47:00,47.2,36.8,31.16,WSW,255,8.0,18.0,67,0.00,CLR,CLR,0.04,WeatherDisplay:10.37,2013-10-25 20:47:00,
2013-10-25 16:52:00,47.3,36.1,31.15,WSW,253,8.0,18.0,65,0.00,CLR,CLR,0.04,WeatherDisplay:10.37,2013-10-25 20:52:00,
2013-10-25 16:57:00,47.6,36.0,31.15,WSW,247,6.0,14.0,64,0.00,CLR,CLR,0.04,WeatherDisplay:10.37,2013-10-25 20:57:00,
2013-10-25 17:02:00,48.0,36.8,31.15,West,259,7.0,12.0,65,0.00,CLR,CLR,0.04,WeatherDisplay:10.37,2013-10-25 21:02:00,
2013-10-25 17:07:00,48.2,37.0,31.15,WSW,250,7.0,12.0,65,0.00,CLR,CLR,0.04,WeatherDisplay:10.37,2013-10-25 21:07:00,
2013-10-25 17:12:00,48.1,35.3,31.15,WSW,241,8.0,14.0,61,0.00,CLR,CLR,0.04,WeatherDisplay:10.37,2013-10-25 21:12:00,
2013-10-25 17:17:00,47.8,35.8,31.15,WSW,239,6.0,12.0,63,0.00,CLR,CLR,0.04,WeatherDisplay:10.37,2013-10-25 21:17:00,
2013-10-25 17:22:00,47.6,36.0,31.15,SW,236,5.0,8.0,64,0.00,CLR,CLR,0.04,WeatherDisplay:10.37,2013-10-25 21:22:00,
2013-10-25 17:27:00,46.8,34.5,31.15,SW,227,7.0,12.0,62,0.00,CLR,CLR,0.04,WeatherDisplay:10.37,2013-10-25 21:27:00,
2013-10-25 17:32:00,46.1,34.2,31.15,SW,223,6.0,10.0,63,0.00,CLR,CLR,0.04,WeatherDisplay:10.37,2013-10-25 21:32:00,
2013-10-25 17:37:00,45.5,34.0,31.15,SW,222,5.0,10.0,64,0.00,CLR,CLR,0.04,WeatherDisplay:10.37,2013-10-25 21:37:00,
2013-10-25 17:42:00,45.1,33.7,31.15,SW,223,6.0,9.0,64,0.00,CLR,CLR,0.04,WeatherDisplay:10.37,2013-10-25 21:42:00,
2013-10-25 17:47:00,44.9,33.5,31.15,SW,226,6.0,8.0,64,0.00,CLR,CLR,0.04,WeatherDisplay:10.37,2013-10-25 21:47:00,
2013-10-25 17:52:00,44.7,33.6,31.15,SW,227,5.0,8.0,65,0.00,CLR,CLR,0.04,WeatherDisplay:10.37,2013-10-25 21:52:00,
2013-10-25 17:57:00,44.6,33.6,31.15,SW,225,5.0,8.0,65,0.00,CLR,CLR,0.04,WeatherDisplay:10.37,2013-10-25 21:57:00,
2013-10-25 18:02:00,44.4,33.7,31.14,SW,222,2.0,4.0,66,0.00,CLR,CLR,0.04,WeatherDisplay:10.37,2013-10-25 22:02:00,
2013-10-25 18:07:00,44.2,33.9,31.14,SW,215,3.0,5.0,67,0.00,CLR,CLR,0.04,WeatherDisplay:10.37,2013-10-25 22:07:00,
2013-10-25 18:12:00,44.0,33.4,31.14,SW,217,6.0,7.0,66,0.00,CLR,CLR,0.04,WeatherDisplay:10.37,2013-10-25 22:12:00,
2013-10-25 18:17:00,44.0,33.7,31.14,SW,223,3.0,5.0,67,0.00,CLR,CLR,0.04,WeatherDisplay:10.37,2013-10-25 22:17:00,
2013-10-25 18:22:00,43.9,34.0,31.14,SW,228,2.0,4.0,68,0.00,CLR,CLR,0.04,WeatherDisplay:10.37,2013-10-25 22:22:00,
2013-10-25 18:27:00,43.7,34.2,31.14,SW,218,1.0,5.0,69,0.00,CLR,CLR,0.04,WeatherDisplay:10.37,2013-10-25 22:27:00,
2013-10-25 18:32:00,43.5,33.7,31.14,SW,216,3.0,5.0,68,0.00,CLR,CLR,0.04,WeatherDisplay:10.37,2013-10-25 22:32:00,
2013-10-25 18:37:00,43.5,34.0,31.14,SW,220,1.0,5.0,69,0.00,CLR,CLR,0.04,WeatherDisplay:10.37,2013-10-25 22:37:00,
2013-10-25 18:42:00,43.4,33.9,31.14,SW,218,0.0,4.0,69,0.00,CLR,CLR,0.04,WeatherDisplay:10.37,2013-10-25 22:42:00,
2013-10-25 18:47:00,43.2,34.4,31.14,SW,215,0.0,3.0,71,0.00,CLR,CLR,0.04,WeatherDisplay:10.37,2013-10-25 22:47:00,
2013-10-25 18:52:00,43.1,34.3,31.14,SW,215,0.0,4.0,71,0.00,CLR,CLR,0.04,WeatherDisplay:10.37,2013-10-25 22:52:00,
2013-10-25 18:57:00,43.0,34.2,31.14,SW,215,0.0,4.0,71,0.00,CLR,CLR,0.04,WeatherDisplay:10.37,2013-10-25 22:57:00,
2013-10-25 19:02:00,42.9,34.5,31.14,SW,215,1.0,3.0,72,0.00,CLR,CLR,0.04,WeatherDisplay:10.37,2013-10-25 23:02:00,
2013-10-25 19:07:00,42.8,35.1,31.14,SW,215,1.0,4.0,74,0.00,CLR,CLR,0.04,WeatherDisplay:10.37,2013-10-25 23:07:00,
2013-10-25 19:12:00,42.7,35.0,31.14,SW,215,1.0,3.0,74,0.00,CLR,CLR,0.04,WeatherDisplay:10.37,2013-10-25 23:12:00,
2013-10-25 19:17:00,42.6,34.2,31.14,South,191,2.0,5.0,72,0.00,CLR,CLR,0.04,WeatherDisplay:10.37,2013-10-25 23:17:00,
2013-10-25 19:22:00,42.5,34.8,31.14,South,179,2.0,5.0,74,0.00,CLR,CLR,0.04,WeatherDisplay:10.37,2013-10-25 23:22:00,
2013-10-25 19:27:00,42.5,34.5,31.14,South,182,1.0,6.0,73,0.00,CLR,CLR,0.04,WeatherDisplay:10.37,2013-10-25 23:27:00,
2013-10-25 19:32:00,42.4,34.7,31.13,South,182,2.0,5.0,74,0.00,CLR,CLR,0.04,WeatherDisplay:10.37,2013-10-25 23:32:00,
2013-10-25 19:37:00,42.3,34.6,31.13,South,182,3.0,5.0,74,0.00,CLR,CLR,0.04,WeatherDisplay:10.37,2013-10-25 23:37:00,
2013-10-25 19:42:00,42.3,34.6,31.13,South,182,3.0,7.0,74,0.00,CLR,CLR,0.04,WeatherDisplay:10.37,2013-10-25 23:42:00,
2013-10-25 19:47:00,42.3,34.6,31.13,South,182,5.0,7.0,74,0.00,CLR,CLR,0.04,WeatherDisplay:10.37,2013-10-25 23:47:00,
2013-10-25 19:52:00,42.3,34.3,31.13,South,182,7.0,9.0,73,0.00,CLR,CLR,0.04,WeatherDisplay:10.37,2013-10-25 23:52:00,
2013-10-25 19:57:00,42.3,34.3,31.13,South,179,5.0,8.0,73,0.00,CLR,CLR,0.04,WeatherDisplay:10.37,2013-10-25 23:57:00,
2013-10-25 20:02:00,42.4,34.0,31.13,South,185,5.0,10.0,72,0.00,CLR,CLR,0.04,WeatherDisplay:10.37,2013-10-26 00:02:00,
2013-10-25 20:07:00,42.5,34.1,31.13,South,188,5.0,8.0,72,0.00,CLR,CLR,0.04,WeatherDisplay:10.37,2013-10-26 00:07:00,
2013-10-25 20:12:00,42.4,34.4,31.13,South,190,5.0,8.0,73,0.00,CLR,CLR,0.04,WeatherDisplay:10.37,2013-10-26 00:12:00,
2013-10-25 20:17:00,42.4,34.0,31.13,SSW,194,6.0,9.0,72,0.00,CLR,CLR,0.04,WeatherDisplay:10.37,2013-10-26 00:17:00,
2013-10-25 20:22:00,42.3,34.3,31.13,SSW,195,5.0,8.0,73,0.00,CLR,CLR,0.04,WeatherDisplay:10.37,2013-10-26 00:22:00,
2013-10-25 20:27:00,42.2,33.5,31.13,SSW,194,6.0,9.0,71,0.00,CLR,CLR,0.04,WeatherDisplay:10.37,2013-10-26 00:27:00,
2013-10-25 20:32:00,42.1,33.7,31.13,SSW,194,6.0,9.0,72,0.00,CLR,CLR,0.04,WeatherDisplay:10.37,2013-10-26 00:32:00,
2013-10-25 20:37:00,41.9,33.9,31.13,SSW,195,5.0,7.0,73,0.00,CLR,CLR,0.04,WeatherDisplay:10.37,2013-10-26 00:37:00,
2013-10-25 20:42:00,41.8,33.8,31.13,SSW,199,5.0,8.0,73,0.00,CLR,CLR,0.04,WeatherDisplay:10.37,2013-10-26 00:42:00,
2013-10-25 20:47:00,41.8,33.8,31.13,SSW,201,5.0,8.0,73,0.00,CLR,CLR,0.04,WeatherDisplay:10.37,2013-10-26 00:47:00,
2013-10-25 20:52:00,41.7,34.0,31.12,SSW,193,5.0,8.0,74,0.00,CLR,CLR,0.04,WeatherDisplay:10.37,2013-10-26 00:52:00,
2013-10-25 20:57:00,41.5,33.8,31.12,SSW,192,3.0,6.0,74,0.00,CLR,CLR,0.04,WeatherDisplay:10.37,2013-10-26 00:57:00,
2013-10-25 21:02:00,41.3,33.6,31.12,SSW,198,5.0,8.0,74,0.00,CLR,CLR,0.04,WeatherDisplay:10.37,2013-10-26 01:02:00,
2013-10-25 21:07:00,41.2,33.5,31.12,SSW,199,5.0,8.0,74,0.00,CLR,CLR,0.04,WeatherDisplay:10.37,2013-10-26 01:07:00,
2013-10-25 21:12:00,41.1,33.1,31.12,SSW,203,3.0,6.0,73,0.00,CLR,CLR,0.04,WeatherDisplay:10.37,2013-10-26 01:12:00,
2013-10-25 21:17:00,41.0,33.3,31.12,SSW,202,3.0,8.0,74,0.00,CLR,CLR,0.04,WeatherDisplay:10.37,2013-10-26 01:17:00,
2013-10-25 21:22:00,40.8,33.2,31.12,SSW,203,6.0,10.0,74,0.00,CLR,CLR,0.04,WeatherDisplay:10.37,2013-10-26 01:22:00,
2013-10-25 21:27:00,40.8,33.2,31.12,SSW,206,5.0,10.0,74,0.00,CLR,CLR,0.04,WeatherDisplay:10.37,2013-10-26 01:27:00,
2013-10-25 21:32:00,40.8,33.2,31.11,SSW,202,5.0,12.0,74,0.00,CLR,CLR,0.04,WeatherDisplay:10.37,2013-10-26 01:32:00,
2013-10-25 21:37:00,40.6,33.0,31.11,SSW,195,3.0,9.0,74,0.00,CLR,CLR,0.04,WeatherDisplay:10.37,2013-10-26 01:37:00,
2013-10-25 21:42:00,40.4,32.8,31.11,SSW,197,5.0,6.0,74,0.00,CLR,CLR,0.04,WeatherDisplay:10.37,2013-10-26 01:42:00,
2013-10-25 21:47:00,40.2,32.9,31.11,SSW,201,3.0,5.0,75,0.00,CLR,CLR,0.04,WeatherDisplay:10.37,2013-10-26 01:47:00,
2013-10-25 21:52:00,40.0,32.7,31.11,SSW,202,3.0,5.0,75,0.00,CLR,CLR,0.04,WeatherDisplay:10.37,2013-10-26 01:52:00,
2013-10-25 21:57:00,39.7,32.8,31.11,SSW,203,2.0,6.0,76,0.00,CLR,CLR,0.04,WeatherDisplay:10.37,2013-10-26 01:57:00,
2013-10-25 22:02:00,39.4,32.5,31.11,SSW,204,3.0,4.0,76,0.00,CLR,CLR,0.04,WeatherDisplay:10.37,2013-10-26 02:02:00,
2013-10-25 22:07:00,39.1,32.5,31.11,SSW,205,0.0,5.0,77,0.00,CLR,CLR,0.04,WeatherDisplay:10.37,2013-10-26 02:07:00,
2013-10-25 22:12:00,38.8,32.5,31.11,SSW,205,0.0,5.0,78,0.00,CLR,CLR,0.04,WeatherDisplay:10.37,2013-10-26 02:12:00,
2013-10-25 22:17:00,38.4,32.4,31.11,SSW,205,0.0,1.0,79,0.00,CLR,CLR,0.04,WeatherDisplay:10.37,2013-10-26 02:17:00,
2013-10-25 22:22:00,37.9,32.3,31.11,SSW,205,0.0,0.0,80,0.00,CLR,CLR,0.04,WeatherDisplay:10.37,2013-10-26 02:22:00,
2013-10-25 22:27:00,37.3,32.0,31.11,SSW,205,0.0,1.0,81,0.00,CLR,CLR,0.04,WeatherDisplay:10.37,2013-10-26 02:27:00,
2013-10-25 22:32:00,36.9,31.9,31.11,SSW,205,0.0,0.0,82,0.00,CLR,CLR,0.04,WeatherDisplay:10.37,2013-10-26 02:32:00,
2013-10-25 22:37:00,36.4,31.7,31.11,SSW,205,0.0,0.0,83,0.00,CLR,CLR,0.04,WeatherDisplay:10.37,2013-10-26 02:37:00,
2013-10-25 22:42:00,36.1,31.7,31.11,SSW,205,0.0,0.0,84,0.00,CLR,CLR,0.04,WeatherDisplay:10.37,2013-10-26 02:42:00,
2013-10-25 22:47:00,35.7,31.7,31.11,SSW,205,0.0,0.0,85,0.00,CLR,CLR,0.04,WeatherDisplay:10.37,2013-10-26 02:47:00,
2013-10-25 22:52:00,35.4,31.3,31.11,SSW,205,0.0,0.0,85,0.00,CLR,CLR,0.04,WeatherDisplay:10.37,2013-10-26 02:52:00,
2013-10-25 22:57:00,35.0,31.2,31.11,SSW,205,1.0,2.0,86,0.00,CLR,CLR,0.04,WeatherDisplay:10.37,2013-10-26 02:57:00,
2013-10-25 23:02:00,34.8,31.3,31.11,SSW,205,0.0,1.0,87,0.00,CLR,CLR,0.04,WeatherDisplay:10.37,2013-10-26 03:02:00,
2013-10-25 23:07:00,34.6,31.4,31.11,SSW,205,0.0,0.0,88,0.00,CLR,CLR,0.04,WeatherDisplay:10.37,2013-10-26 03:07:00,
2013-10-25 23:12:00,34.5,31.3,31.10,SSW,205,0.0,1.0,88,0.00,CLR,CLR,0.04,WeatherDisplay:10.37,2013-10-26 03:12:00,
2013-10-25 23:17:00,34.3,31.1,31.10,SSW,205,0.0,1.0,88,0.00,CLR,CLR,0.04,WeatherDisplay:10.37,2013-10-26 03:17:00,
2013-10-25 23:22:00,34.2,31.3,31.10,SSW,205,0.0,0.0,89,0.00,CLR,CLR,0.04,WeatherDisplay:10.37,2013-10-26 03:22:00,
2013-10-25 23:27:00,34.0,31.1,31.10,SSW,205,0.0,1.0,89,0.00,CLR,CLR,0.04,WeatherDisplay:10.37,2013-10-26 03:27:00,
2013-10-25 23:32:00,33.8,30.9,31.10,SSW,205,0.0,1.0,89,0.00,CLR,CLR,0.04,WeatherDisplay:10.37,2013-10-26 03:32:00,
2013-10-25 23:37:00,33.7,31.1,31.10,SSW,205,0.0,1.0,90,0.00,CLR,CLR,0.04,WeatherDisplay:10.37,2013-10-26 03:37:00,
2013-10-25 23:42:00,33.6,31.0,31.10,SSW,205,0.0,0.0,90,0.00,CLR,CLR,0.04,WeatherDisplay:10.37,2013-10-26 03:42:00,
2013-10-25 23:47:00,33.4,30.8,31.10,SSW,205,0.0,0.0,90,0.00,CLR,CLR,0.04,WeatherDisplay:10.37,2013-10-26 03:47:00,
2013-10-25 23:52:00,33.3,30.7,31.09,SSW,205,0.0,3.0,90,0.00,CLR,CLR,0.04,WeatherDisplay:10.37,2013-10-26 03:52:00,
2013-10-25 23:57:00,33.4,31.0,31.09,SSW,205,2.0,4.0,91,0.00,CLR,CLR,0.04,WeatherDisplay:10.37,2013-10-26 03:57:00,